Hurlburt Field
KHRT : now visible

Airfield :











YOU CAN JOIN US ON...

 
LOGIN :

Register | Disclaimer

   EN    FR    IT 

 









Legend :    VFR   Marginal VFR   IFR   Intensive IFR   Very Intensive IFR
Visi :
Ceiling :
>= 8 km
>= 3000ft
5 to 8 km
1000 to 3000 ft
1500m to 5 km
500 to 1000 ft
800 to 1500m
200 to 500 ft
< 800m
< 200 ft
Symbols :   Thunderstorms  Fog  Heavy snow  Heavy precipitations  Wind > 20 kt






- Airport Elevation : 38 ft


KHRT - Hurlburt Field

CURRENT METAR :
  • 130506Z AUTO 05008KT 10SM BKN008 OVC200 10/08 A3012 RMK AO2 CIG 008V200 BKN V FEW SLP202 $

EXPIRED METARs :
  • 130456Z 04007G17KT 10SM SCT028 BKN200 10/08 A3012 RMK AO2A SLP202 T00960080 $
  • 130356Z 07011G16KT 10SM BKN048 10/08 A3015 RMK AO2A SLP212 T00950079 $
  • 130316Z 06011KT 10SM FEW024 SCT040 BKN055 10/08 A3017 RMK AO2A SLP218 $

TAF AMD TAF KHRT
Valid from the 13 at 03:00 until the 14 at 08:00 UTC


130330Z 1303/1408 07010G15KT 9999 FEW030 SCT050 QNH3009INS
BECMG 1308/1309 05010G15KT 9999 BKN030 OVC050 621302 QNH2999INS
BECMG 1318/1319 VRB06KT 9999 BKN020 OVC030 QNH2977INS TX15/1321Z TN05/1311Z



MET'MAP, your aeronautical weather chart ! - Copyright ORBIFLY December 2007 - Disclaimer

ORBIFLY MET'MAP TEAM :

Programming & Development : Alexandra Zaïnal
Concept & original design : Baudouin d'Aumeries
Assistance for programming : Marc-Olivier Méhu
Technical & hardware support : Manuel Goepfert

Contact : metmap@orbifly.com




SOURCES & CREDITS :

   NOAA       Earth
Advisory